createdAt,value
2018-06-08T00:00:57.104Z,6.50
2018-06-08T00:03:25.620Z,8.27
2018-06-08T00:05:54.142Z,7.73
2018-06-08T00:08:22.656Z,9.30
2018-06-08T00:10:51.354Z,6.93
2018-06-08T00:13:19.848Z,7.10
2018-06-08T00:15:48.375Z,7.77
2018-06-08T00:18:16.872Z,6.47
2018-06-08T00:20:45.382Z,8.13
2018-06-08T00:23:13.880Z,6.10
2018-06-08T00:25:42.393Z,7.47
2018-06-08T00:28:10.915Z,7.50
2018-06-08T00:30:39.424Z,10.07
2018-06-08T00:33:07.921Z,7.37
2018-06-08T00:35:36.428Z,8.80
2018-06-08T00:38:05.332Z,8.53
2018-06-08T00:40:33.836Z,7.10
2018-06-08T00:43:02.560Z,7.60
2018-06-08T00:45:31.065Z,7.03
2018-06-08T00:47:59.596Z,8.10
2018-06-08T00:50:28.519Z,10.27
2018-06-08T00:52:57.000Z,7.97
2018-06-08T00:55:25.504Z,10.03
2018-06-08T00:57:54.033Z,10.27
2018-06-08T01:00:22.570Z,9.77
2018-06-08T01:02:51.117Z,10.17
2018-06-08T01:05:19.842Z,9.37
2018-06-08T01:07:48.350Z,8.23
2018-06-08T01:10:16.848Z,7.93
2018-06-08T01:12:45.356Z,9.93
2018-06-08T01:15:13.906Z,8.73
2018-06-08T01:17:42.420Z,7.77
2018-06-08T01:20:10.940Z,7.73
2018-06-08T01:22:39.469Z,7.73
2018-06-08T01:25:08.020Z,6.23
2018-06-08T01:27:36.521Z,7.63
2018-06-08T01:30:05.097Z,6.43
2018-06-08T01:32:33.633Z,5.93
2018-06-08T01:35:02.232Z,7.73
2018-06-08T01:37:30.728Z,8.93
2018-06-08T01:39:59.269Z,7.70
2018-06-08T01:42:27.750Z,7.73
2018-06-08T01:44:56.247Z,7.23
2018-06-08T01:47:25.329Z,10.27
2018-06-08T01:49:53.885Z,9.70
2018-06-08T01:52:22.437Z,8.50
2018-06-08T01:54:50.932Z,8.03
2018-06-08T01:57:19.432Z,8.13
2018-06-08T01:59:47.949Z,10.40
2018-06-08T02:02:16.469Z,13.57
2018-06-08T02:04:44.956Z,8.70
2018-06-08T02:07:13.560Z,10.43
2018-06-08T02:09:42.104Z,8.73
2018-06-08T02:12:10.678Z,9.37
2018-06-08T02:14:39.194Z,11.13
2018-06-08T02:17:07.749Z,10.20
2018-06-08T02:19:36.411Z,11.90
2018-06-08T02:22:04.928Z,9.67
2018-06-08T02:24:33.456Z,11.07
2018-06-08T02:27:01.992Z,12.77
2018-06-08T02:29:30.562Z,10.90
2018-06-08T02:31:59.327Z,11.93
2018-06-08T02:34:27.808Z,10.20
2018-06-08T02:36:56.610Z,11.70
2018-06-08T02:39:25.240Z,11.53
2018-06-08T02:41:53.789Z,11.63
2018-06-08T02:44:22.300Z,11.70
2018-06-08T02:46:50.829Z,11.70
2018-06-08T02:49:19.360Z,12.87
2018-06-08T02:51:47.912Z,10.23
2018-06-08T02:54:16.432Z,15.23
2018-06-08T02:56:45.899Z,11.80
2018-06-08T02:59:14.504Z,15.70
2018-06-08T03:01:43.025Z,13.63
2018-06-08T03:04:11.557Z,16.00
2018-06-08T03:06:40.080Z,15.03
2018-06-08T03:09:08.608Z,14.50
2018-06-08T03:11:37.109Z,15.27
2018-06-08T03:14:05.630Z,13.20
2018-06-08T03:16:34.194Z,16.07
2018-06-08T03:19:02.849Z,13.33
2018-06-08T03:21:31.386Z,13.40
2018-06-08T03:23:59.953Z,15.50
2018-06-08T03:26:28.473Z,12.00
2018-06-08T03:28:56.976Z,12.97
2018-06-08T03:31:25.493Z,14.03
2018-06-08T03:33:54.031Z,18.07
2018-06-08T03:36:22.532Z,11.93
2018-06-08T03:38:51.040Z,12.67
2018-06-08T03:41:19.561Z,13.50
2018-06-08T03:43:48.217Z,12.47
2018-06-08T03:46:16.741Z,14.07
2018-06-08T03:48:45.249Z,11.03
2018-06-08T03:51:13.740Z,11.73
2018-06-08T03:53:42.365Z,12.43
2018-06-08T03:56:10.917Z,12.93
2018-06-08T03:58:39.456Z,11.50
2018-06-08T04:01:07.951Z,11.17
2018-06-08T04:03:36.523Z,10.23
2018-06-08T04:06:05.042Z,14.73
2018-06-08T04:08:33.632Z,13.20
2018-06-08T04:11:02.194Z,11.13
2018-06-08T04:13:30.712Z,9.80
2018-06-08T04:15:59.221Z,11.40
2018-06-08T04:18:27.756Z,11.10
2018-06-08T04:20:56.264Z,13.97
2018-06-08T04:23:24.788Z,12.87
2018-06-08T04:25:53.313Z,11.07
2018-06-08T04:28:21.873Z,11.87
2018-06-08T04:30:50.378Z,12.40
2018-06-08T04:33:18.892Z,13.10
2018-06-08T04:35:47.402Z,11.63
2018-06-08T04:38:15.899Z,12.13
2018-06-08T04:40:44.419Z,15.63
2018-06-08T04:43:12.940Z,14.53
2018-06-08T04:45:41.654Z,15.57
2018-06-08T04:48:10.173Z,15.47
2018-06-08T04:50:38.691Z,15.40
2018-06-08T04:53:07.212Z,12.60
2018-06-08T04:55:35.722Z,11.20
2018-06-08T04:58:04.404Z,12.27
2018-06-08T05:00:32.973Z,13.07
2018-06-08T05:03:01.494Z,11.23
2018-06-08T05:05:30.032Z,11.90
2018-06-08T05:07:58.551Z,12.50
2018-06-08T05:10:27.070Z,13.23
2018-06-08T05:12:55.589Z,11.70
2018-06-08T05:15:24.092Z,14.53
2018-06-08T05:17:52.637Z,14.60
2018-06-08T05:20:21.227Z,16.30
2018-06-08T05:22:49.757Z,14.67
2018-06-08T05:25:18.521Z,12.30
2018-06-08T05:27:47.039Z,13.70
2018-06-08T05:30:18.493Z,11.00
2018-06-08T05:32:47.053Z,9.60
2018-06-08T05:35:16.549Z,9.57
2018-06-08T05:37:45.067Z,6.73
2018-06-08T05:40:13.614Z,2.93
2018-06-08T05:42:42.143Z,3.53
2018-06-08T05:45:10.839Z,7.73
2018-06-08T05:47:39.505Z,7.77
2018-06-08T05:50:08.006Z,2.87
2018-06-08T05:52:36.528Z,2.93
2018-06-08T05:55:05.149Z,3.43
2018-06-08T05:57:33.661Z,3.73
2018-06-08T06:00:02.249Z,2.03
2018-06-08T06:02:30.793Z,5.00
2018-06-08T06:04:59.348Z,2.90
2018-06-08T06:07:27.869Z,3.70
2018-06-08T06:09:56.374Z,2.60
2018-06-08T06:12:24.890Z,2.13
2018-06-08T06:14:53.445Z,3.43
2018-06-08T06:17:21.960Z,2.27
2018-06-08T06:19:50.558Z,2.97
2018-06-08T06:22:19.183Z,3.57
2018-06-08T06:24:47.684Z,5.07
2018-06-08T06:27:16.173Z,8.60
2018-06-08T06:29:44.738Z,8.43
2018-06-08T06:32:13.285Z,7.67
2018-06-08T06:34:41.820Z,4.57
2018-06-08T06:37:10.409Z,7.03
2018-06-08T06:39:39.007Z,3.37
2018-06-08T06:42:07.564Z,4.83
2018-06-08T06:44:36.104Z,5.47
2018-06-08T06:47:04.629Z,5.00
2018-06-08T06:49:33.290Z,5.77
2018-06-08T06:52:01.805Z,4.97
2018-06-08T06:54:30.306Z,4.87
2018-06-08T06:56:58.824Z,6.70
2018-06-08T06:59:27.281Z,3.30
2018-06-08T07:01:55.728Z,4.20
2018-06-08T07:04:24.166Z,4.40
2018-06-08T07:06:52.648Z,4.90
2018-06-08T07:09:21.349Z,4.60
2018-06-08T07:11:49.838Z,5.60
2018-06-08T07:14:18.349Z,10.07
2018-06-08T07:16:46.836Z,4.33
2018-06-08T07:19:15.366Z,6.13
2018-06-08T07:21:43.902Z,5.87
2018-06-08T07:24:12.399Z,8.17
2018-06-08T07:26:40.898Z,5.17
2018-06-08T07:29:09.426Z,7.27
2018-06-08T07:31:38.080Z,6.30
2018-06-08T07:34:06.603Z,9.63
2018-06-08T07:36:35.113Z,5.23
2018-06-08T07:39:03.896Z,8.80
2018-06-08T07:41:32.520Z,4.13
2018-06-08T07:44:01.036Z,4.63
2018-06-08T07:46:29.573Z,4.70
2018-06-08T07:48:58.085Z,5.73
2018-06-08T07:51:26.617Z,4.23
2018-06-08T07:53:55.137Z,6.33
2018-06-08T07:56:23.652Z,5.23
2018-06-08T07:58:52.136Z,5.43
2018-06-08T08:01:20.650Z,4.40
2018-06-08T08:03:49.216Z,3.90
2018-06-08T08:06:17.714Z,4.87
2018-06-08T08:08:46.248Z,5.63
2018-06-08T08:11:14.758Z,4.67
2018-06-08T08:13:43.304Z,5.47
2018-06-08T08:16:11.867Z,4.60
2018-06-08T08:18:40.356Z,4.70
2018-06-08T08:21:08.864Z,4.37
2018-06-08T08:23:37.382Z,4.47
2018-06-08T08:26:05.893Z,9.30
2018-06-08T08:28:34.387Z,6.57
2018-06-08T08:31:02.893Z,8.57
2018-06-08T08:33:31.393Z,7.30
2018-06-08T08:35:59.916Z,4.30
2018-06-08T08:38:28.417Z,4.13
2018-06-08T08:40:56.917Z,4.80
2018-06-08T08:43:25.419Z,3.90
2018-06-08T08:45:54.401Z,9.80
2018-06-08T08:48:22.894Z,4.93
2018-06-08T08:50:51.515Z,4.13
2018-06-08T08:53:20.035Z,6.90
2018-06-08T08:55:48.549Z,10.00
2018-06-08T08:58:17.069Z,4.27
2018-06-08T09:00:45.556Z,6.17
2018-06-08T09:03:14.071Z,6.10
2018-06-08T09:05:42.569Z,4.80
2018-06-08T09:08:11.073Z,3.83
2018-06-08T09:10:39.573Z,3.80
2018-06-08T09:13:08.069Z,6.20
2018-06-08T09:15:36.565Z,6.30
2018-06-08T09:18:05.658Z,6.60
2018-06-08T09:20:34.153Z,7.27
2018-06-08T09:23:02.652Z,4.00
2018-06-08T09:25:31.151Z,4.83
2018-06-08T09:27:59.672Z,4.23
2018-06-08T09:30:28.175Z,4.03
2018-06-08T09:32:56.702Z,4.77
2018-06-08T09:35:25.217Z,4.03
2018-06-08T09:37:53.797Z,4.40
2018-06-08T09:40:22.317Z,4.13
2018-06-08T09:42:50.856Z,3.87
2018-06-08T09:45:19.423Z,4.10
2018-06-08T09:47:47.930Z,5.60
2018-06-08T09:50:16.492Z,4.43
2018-06-08T09:52:45.084Z,3.80
2018-06-08T09:55:13.575Z,7.70
2018-06-08T09:57:42.101Z,4.67
2018-06-08T10:00:10.604Z,3.80
2018-06-08T10:02:39.133Z,4.10
2018-06-08T10:05:07.661Z,4.73
2018-06-08T10:07:36.188Z,3.60
2018-06-08T10:10:04.696Z,3.77
2018-06-08T10:12:33.206Z,4.23
2018-06-08T10:15:01.705Z,4.77
2018-06-08T10:17:30.256Z,3.87
2018-06-08T10:19:58.762Z,3.33
2018-06-08T10:22:27.400Z,3.90
2018-06-08T10:24:55.929Z,6.53
2018-06-08T10:27:24.460Z,4.70
2018-06-08T10:29:52.980Z,3.33
2018-06-08T10:32:21.486Z,3.90
2018-06-08T10:34:50.008Z,3.67
2018-06-08T10:37:18.509Z,3.73
2018-06-08T10:39:47.002Z,4.47
2018-06-08T10:42:15.489Z,3.80
2018-06-08T10:44:44.009Z,4.47
2018-06-08T10:47:12.565Z,4.53
2018-06-08T10:49:41.073Z,4.47
2018-06-08T10:52:09.577Z,4.27
2018-06-08T10:54:38.862Z,3.90
2018-06-08T10:57:07.379Z,3.50
2018-06-08T10:59:35.908Z,3.50
2018-06-08T11:02:04.420Z,7.03
2018-06-08T11:04:32.944Z,4.10
2018-06-08T11:07:01.445Z,5.57
2018-06-08T11:09:29.937Z,4.70
2018-06-08T11:11:58.424Z,3.67
2018-06-08T11:14:26.922Z,4.90
2018-06-08T11:16:55.427Z,3.67
2018-06-08T11:19:23.943Z,3.87
2018-06-08T11:21:52.447Z,3.23
2018-06-08T11:24:20.932Z,3.33
2018-06-08T11:26:49.546Z,3.03
2018-06-08T11:29:18.046Z,6.87
2018-06-08T11:31:46.541Z,4.93
2018-06-08T11:34:15.055Z,3.77
2018-06-08T11:36:43.585Z,3.73
2018-06-08T11:39:12.153Z,4.83
2018-06-08T11:41:40.613Z,4.53
2018-06-08T11:44:09.117Z,3.53
2018-06-08T11:46:37.607Z,3.57
2018-06-08T11:49:06.216Z,3.47
2018-06-08T11:51:34.726Z,3.33
2018-06-08T11:54:03.730Z,3.10
2018-06-08T11:56:32.326Z,2.57
2018-06-08T11:59:00.891Z,2.90
2018-06-08T12:01:29.385Z,3.03
2018-06-08T12:03:57.894Z,4.50
2018-06-08T12:06:26.432Z,3.43
2018-06-08T12:08:54.952Z,3.00
2018-06-08T12:11:23.463Z,2.40
2018-06-08T12:13:51.966Z,2.80
2018-06-08T12:16:20.481Z,2.60
2018-06-08T12:18:48.976Z,2.60
2018-06-08T12:21:17.517Z,3.00
2018-06-08T12:23:46.040Z,2.80
2018-06-08T12:26:14.520Z,2.90
2018-06-08T12:28:43.038Z,2.60
2018-06-08T12:31:11.897Z,4.33
2018-06-08T12:33:40.417Z,2.67
2018-06-08T12:36:08.955Z,2.87
2018-06-08T12:38:37.485Z,3.27
2018-06-08T12:41:06.229Z,2.67
2018-06-08T12:43:34.758Z,2.80
2018-06-08T12:46:03.282Z,3.17
2018-06-08T12:48:31.793Z,2.77
2018-06-08T12:51:00.313Z,2.87
2018-06-08T12:53:28.809Z,2.73
2018-06-08T12:55:57.320Z,3.00
2018-06-08T12:58:25.814Z,3.27
2018-06-08T13:00:54.324Z,2.70
2018-06-08T13:03:23.288Z,3.13
2018-06-08T13:05:51.775Z,2.23
2018-06-08T13:08:20.229Z,3.60
2018-06-08T13:10:48.736Z,2.40
2018-06-08T13:13:17.254Z,3.00
2018-06-08T13:15:45.773Z,3.40
2018-06-08T13:18:14.306Z,2.57
2018-06-08T13:20:42.817Z,2.57
2018-06-08T13:23:11.332Z,2.47
2018-06-08T13:25:39.847Z,6.97
2018-06-08T13:28:08.333Z,3.13
2018-06-08T13:30:36.832Z,3.53
2018-06-08T13:33:05.340Z,3.93
2018-06-08T13:35:33.896Z,3.60
2018-06-08T13:38:02.344Z,4.77
2018-06-08T13:40:30.867Z,3.23
2018-06-08T13:42:59.358Z,3.57
2018-06-08T13:45:27.863Z,3.07
2018-06-08T13:47:56.366Z,3.07
2018-06-08T13:50:24.882Z,5.13
2018-06-08T13:52:53.393Z,3.70
2018-06-08T13:55:22.021Z,4.40
2018-06-08T13:57:50.533Z,7.47
2018-06-08T14:00:19.059Z,3.90
2018-06-08T14:02:47.552Z,3.20
2018-06-08T14:05:16.063Z,3.90
2018-06-08T14:07:45.233Z,4.80
2018-06-08T14:10:13.725Z,4.03
2018-06-08T14:12:42.238Z,3.97
2018-06-08T14:15:10.752Z,4.40
2018-06-08T14:17:39.273Z,3.90
2018-06-08T14:20:07.806Z,3.20
2018-06-08T14:22:36.309Z,4.80
2018-06-08T14:25:04.869Z,5.63
2018-06-08T14:27:33.543Z,4.37
2018-06-08T14:30:02.062Z,3.60
2018-06-08T14:32:30.587Z,4.13
2018-06-08T14:34:59.093Z,3.57
2018-06-08T14:37:27.586Z,5.87
2018-06-08T14:39:56.229Z,3.10
2018-06-08T14:42:24.741Z,3.67
2018-06-08T14:44:53.254Z,3.33
2018-06-08T14:47:21.760Z,3.10
2018-06-08T14:49:50.266Z,5.30
2018-06-08T14:52:18.793Z,3.70
2018-06-08T14:54:47.281Z,4.57
2018-06-08T14:57:15.778Z,6.63
2018-06-08T14:59:44.298Z,7.67
2018-06-08T15:02:12.930Z,4.93
2018-06-08T15:04:41.536Z,5.73
2018-06-08T15:07:10.042Z,12.73
2018-06-08T15:09:38.590Z,16.30
2018-06-08T15:12:07.247Z,13.27
2018-06-08T15:14:35.794Z,9.13
2018-06-08T15:17:04.342Z,9.23
2018-06-08T15:19:32.860Z,5.20
2018-06-08T15:22:01.361Z,10.30
2018-06-08T15:24:29.984Z,8.20
2018-06-08T15:26:58.482Z,6.63
2018-06-08T15:29:27.011Z,7.60
2018-06-08T15:31:55.581Z,5.37
2018-06-08T15:34:24.110Z,5.47
2018-06-08T15:36:52.611Z,4.20
2018-06-08T15:39:21.145Z,7.27
2018-06-08T15:41:49.702Z,6.30
2018-06-08T15:44:18.567Z,5.27
2018-06-08T15:46:47.068Z,5.97
2018-06-08T15:49:15.562Z,5.93
2018-06-08T15:51:44.056Z,6.87
2018-06-08T15:54:12.571Z,7.53
2018-06-08T15:56:41.113Z,10.13
2018-06-08T15:59:09.665Z,15.17
2018-06-08T16:01:38.203Z,9.27
2018-06-08T16:04:06.752Z,6.40
2018-06-08T16:06:35.276Z,6.67
2018-06-08T16:09:04.033Z,6.03
2018-06-08T16:11:32.542Z,6.00
2018-06-08T16:14:01.061Z,10.10
2018-06-08T16:16:29.708Z,5.43
2018-06-08T16:18:58.238Z,5.33
2018-06-08T16:21:26.765Z,4.93
2018-06-08T16:23:55.324Z,4.20
2018-06-08T16:26:23.834Z,5.47
2018-06-08T16:28:52.501Z,4.40
2018-06-08T16:31:21.048Z,11.30
2018-06-08T16:33:49.546Z,4.77
2018-06-08T16:36:18.824Z,7.00
2018-06-08T16:38:47.304Z,5.07
2018-06-08T16:41:15.809Z,5.10
2018-06-08T16:43:44.424Z,4.60
2018-06-08T16:46:12.921Z,4.43
2018-06-08T16:48:41.581Z,4.80
2018-06-08T16:51:10.090Z,5.93
2018-06-08T16:53:38.594Z,5.50
2018-06-08T16:56:07.096Z,2.90
2018-06-08T16:58:35.608Z,4.37
2018-06-08T17:01:04.099Z,5.63
2018-06-08T17:03:32.632Z,3.03
2018-06-08T17:06:01.150Z,7.10
2018-06-08T17:08:29.643Z,3.30
2018-06-08T17:10:58.166Z,4.93
2018-06-08T17:13:26.676Z,6.47
2018-06-08T17:15:55.173Z,5.10
2018-06-08T17:18:23.676Z,6.77
2018-06-08T17:20:52.223Z,4.53
2018-06-08T17:23:20.734Z,3.30
2018-06-08T17:25:49.352Z,8.37
2018-06-08T17:28:17.895Z,2.67
2018-06-08T17:30:46.405Z,3.67
2018-06-08T17:33:14.925Z,4.60
2018-06-08T17:35:43.437Z,3.67
2018-06-08T17:38:11.967Z,3.07
2018-06-08T17:40:40.469Z,3.50
2018-06-08T17:43:09.253Z,4.33
2018-06-08T17:45:37.815Z,6.43
2018-06-08T17:48:06.321Z,4.77
2018-06-08T17:50:34.820Z,4.07
2018-06-08T17:53:04.272Z,8.20
2018-06-08T17:55:32.849Z,5.60
2018-06-08T17:58:01.915Z,5.13
2018-06-08T18:00:30.418Z,3.03
2018-06-08T18:02:58.936Z,3.37
2018-06-08T18:05:27.768Z,3.73
2018-06-08T18:07:56.272Z,6.63
2018-06-08T18:10:24.768Z,6.00
2018-06-08T18:12:53.258Z,5.63
2018-06-08T18:15:21.758Z,4.97
2018-06-08T18:17:50.335Z,3.87
2018-06-08T18:20:18.821Z,4.37
2018-06-08T18:22:47.437Z,4.93
2018-06-08T18:25:15.993Z,4.90
2018-06-08T18:27:44.506Z,6.27
2018-06-08T18:30:12.999Z,3.30
2018-06-08T18:32:41.510Z,4.20
2018-06-08T18:35:10.018Z,5.93
2018-06-08T18:37:38.521Z,5.93
2018-06-08T18:40:07.098Z,4.33
2018-06-08T18:42:35.621Z,3.70
2018-06-08T18:45:04.160Z,6.10
2018-06-08T18:47:32.699Z,5.50
2018-06-08T18:50:01.221Z,5.10
2018-06-08T18:52:29.746Z,3.93
2018-06-08T18:54:58.243Z,4.37
2018-06-08T18:57:26.853Z,3.43
2018-06-08T18:59:55.365Z,4.37
2018-06-08T19:02:23.877Z,5.80
2018-06-08T19:04:52.410Z,6.33
2018-06-08T19:07:21.370Z,6.03
2018-06-08T19:09:49.958Z,7.20
2018-06-08T19:12:18.506Z,4.43
2018-06-08T19:14:47.242Z,6.73
2018-06-08T19:17:15.748Z,3.30
2018-06-08T19:19:44.312Z,7.40
2018-06-08T19:22:12.813Z,6.17
2018-06-08T19:24:41.401Z,5.00
2018-06-08T19:27:09.900Z,7.63
2018-06-08T19:29:38.467Z,7.43
2018-06-08T19:32:06.963Z,4.30
2018-06-08T19:34:35.474Z,3.67
2018-06-08T19:37:04.016Z,6.33
2018-06-08T19:39:32.511Z,4.53
2018-06-08T19:42:01.017Z,3.90
2018-06-08T19:44:29.574Z,3.63
2018-06-08T19:46:58.057Z,8.77
2018-06-08T19:49:26.575Z,5.13
2018-06-08T19:51:55.073Z,5.53
2018-06-08T19:54:23.585Z,5.57
2018-06-08T19:56:52.076Z,5.33
2018-06-08T19:59:20.564Z,4.70
2018-06-08T20:01:49.193Z,5.60
2018-06-08T20:04:17.703Z,8.47
2018-06-08T20:06:46.207Z,5.60
2018-06-08T20:09:14.780Z,5.37
2018-06-08T20:11:43.272Z,5.27
2018-06-08T20:14:11.781Z,5.17
2018-06-08T20:16:40.289Z,9.20
2018-06-08T20:19:08.824Z,4.30
2018-06-08T20:21:37.307Z,4.90
2018-06-08T20:24:05.809Z,6.07
2018-06-08T20:26:34.315Z,4.80
2018-06-08T20:29:02.827Z,5.00
2018-06-08T20:31:31.343Z,5.97
2018-06-08T20:34:00.013Z,6.37
2018-06-08T20:36:28.522Z,4.17
2018-06-08T20:38:57.027Z,4.13
2018-06-08T20:41:25.525Z,3.77
2018-06-08T20:43:54.020Z,7.63
2018-06-08T20:46:22.534Z,4.00
2018-06-08T20:48:51.052Z,6.97
2018-06-08T20:51:19.574Z,4.97
2018-06-08T20:53:48.080Z,5.50
2018-06-08T20:56:16.724Z,5.67
2018-06-08T20:58:45.396Z,6.27
2018-06-08T21:01:13.893Z,5.93
2018-06-08T21:03:42.388Z,5.13
2018-06-08T21:06:10.935Z,10.17
2018-06-08T21:08:39.576Z,8.57
2018-06-08T21:11:08.098Z,6.90
2018-06-08T21:13:36.601Z,7.80
2018-06-08T21:16:05.130Z,8.30
2018-06-08T21:18:33.652Z,6.80
2018-06-08T21:21:02.194Z,7.80
2018-06-08T21:23:30.719Z,6.40
2018-06-08T21:25:59.285Z,7.83
2018-06-08T21:28:27.792Z,6.87
2018-06-08T21:30:56.289Z,9.90
2018-06-08T21:33:24.790Z,5.90
2018-06-08T21:35:53.337Z,4.77
2018-06-08T21:38:21.887Z,4.50
2018-06-08T21:40:50.513Z,4.93
2018-06-08T21:43:19.020Z,5.10
2018-06-08T21:45:47.525Z,5.70
2018-06-08T21:48:16.020Z,6.87
2018-06-08T21:50:44.522Z,4.00
2018-06-08T21:53:13.014Z,4.77
2018-06-08T21:55:41.532Z,3.90
2018-06-08T21:58:10.026Z,4.17
2018-06-08T22:00:38.556Z,5.43
2018-06-08T22:03:07.109Z,4.23
2018-06-08T22:05:35.634Z,7.07
2018-06-08T22:08:04.163Z,4.20
2018-06-08T22:10:32.822Z,4.67
2018-06-08T22:13:01.800Z,3.50
2018-06-08T22:15:30.302Z,3.60
2018-06-08T22:17:58.812Z,5.97
2018-06-08T22:20:27.331Z,3.67
2018-06-08T22:22:55.861Z,4.13
2018-06-08T22:25:24.354Z,4.47
2018-06-08T22:27:52.919Z,3.53
2018-06-08T22:30:21.426Z,3.33
2018-06-08T22:32:51.491Z,5.07
2018-06-08T22:35:20.047Z,5.63
2018-06-08T22:37:48.553Z,3.77
2018-06-08T22:40:17.057Z,3.40
2018-06-08T22:42:45.602Z,4.83
2018-06-08T22:45:14.168Z,4.00
2018-06-08T22:47:42.673Z,5.07
2018-06-08T22:50:11.188Z,5.73
2018-06-08T22:52:39.701Z,5.80
2018-06-08T22:55:08.200Z,4.63
2018-06-08T22:57:36.720Z,4.93
2018-06-08T23:00:05.218Z,4.37
2018-06-08T23:02:33.489Z,5.17
2018-06-08T23:05:02.056Z,6.40
2018-06-08T23:07:30.619Z,5.83
2018-06-08T23:09:59.256Z,5.57
2018-06-08T23:12:27.804Z,7.63
2018-06-08T23:14:56.808Z,5.23
2018-06-08T23:17:25.303Z,7.80
2018-06-08T23:19:53.830Z,5.17
2018-06-08T23:22:22.320Z,6.50
2018-06-08T23:24:50.813Z,6.00
2018-06-08T23:27:19.308Z,5.93
2018-06-08T23:29:47.822Z,6.20
2018-06-08T23:32:16.352Z,5.57
2018-06-08T23:34:44.831Z,5.80
2018-06-08T23:37:13.334Z,9.60
2018-06-08T23:39:41.856Z,11.43
2018-06-08T23:42:10.364Z,5.07
2018-06-08T23:44:38.857Z,6.03
2018-06-08T23:47:08.101Z,4.33
2018-06-08T23:49:36.640Z,5.53
2018-06-08T23:52:05.169Z,5.07
2018-06-08T23:54:33.659Z,6.50
2018-06-08T23:57:02.153Z,7.07
2018-06-08T23:59:30.653Z,6.93
